Time;durP1;ratioP1;P1;durP2;ratioP2;P2;SDS_P1;SDS_P2;PMS_P1;PMS_P2;Temp;Humidity;BMP_temperature;BMP_pressure;BME280_temperature;BME280_humidity;BME280_pressure;Samples;Min_cycle;Max_cycle;Signal;HPM_P1;HPM_P2
2022/11/15 00:01:19;;;;;;;26.60;14.57;;;;;;;7.14;100.00;100755.78;5049547;28;20035;-65
2022/11/15 00:03:44;;;;;;;25.27;13.70;;;;;;;7.19;100.00;100760.56;5048313;28;20041;-65
2022/11/15 00:06:10;;;;;;;25.05;13.55;;;;;;;7.21;100.00;100753.28;5048449;28;20041;-65
2022/11/15 00:08:35;;;;;;;25.58;12.88;;;;;;;7.25;100.00;100757.22;5049532;28;20068;-65
2022/11/15 00:11:02;;;;;;;24.92;13.85;;;;;;;7.27;100.00;100757.84;5049688;28;20032;-66
2022/11/15 00:13:29;;;;;;;26.48;12.60;;;;;;;7.31;100.00;100753.00;5049625;28;20017;-65
2022/11/15 00:15:59;;;;;;;25.15;12.88;;;;;;;7.33;100.00;100749.19;5049529;28;20037;-65
2022/11/15 00:18:24;;;;;;;25.50;13.65;;;;;;;7.37;100.00;100752.31;5049528;28;20029;-65
2022/11/15 00:20:49;;;;;;;23.38;13.30;;;;;;;7.38;100.00;100741.50;5049476;28;20118;-66
2022/11/15 00:23:15;;;;;;;24.90;12.40;;;;;;;7.45;100.00;100745.13;5049330;28;20068;-65
2022/11/15 00:25:40;;;;;;;24.85;12.60;;;;;;;7.49;100.00;100750.06;5049373;28;20033;-66
2022/11/15 00:28:06;;;;;;;24.23;13.50;;;;;;;7.54;100.00;100747.69;5049307;28;20064;-65
2022/11/15 00:30:31;;;;;;;24.90;12.70;;;;;;;7.58;100.00;100749.81;5049354;28;20033;-65
2022/11/15 00:33:01;;;;;;;24.30;13.27;;;;;;;7.61;100.00;100740.66;5049372;28;20040;-66
2022/11/15 00:35:27;;;;;;;23.40;12.93;;;;;;;7.68;100.00;100744.25;5049285;28;20025;-65
2022/11/15 00:37:52;;;;;;;24.38;13.55;;;;;;;7.72;100.00;100748.19;5049152;28;20055;-65
2022/11/15 00:40:17;;;;;;;22.83;11.60;;;;;;;7.75;100.00;100745.16;5049352;28;20095;-65
2022/11/15 00:42:43;;;;;;;27.90;13.32;;;;;;;7.79;100.00;100745.66;5049210;28;20384;-65
2022/11/15 00:45:09;;;;;;;26.33;13.23;;;;;;;7.84;100.00;100744.09;5049324;28;20037;-65
2022/11/15 00:47:34;;;;;;;25.73;12.80;;;;;;;7.89;100.00;100731.09;5049153;28;20032;-65
2022/11/15 00:50:00;;;;;;;24.50;13.18;;;;;;;7.98;100.00;100738.97;5049147;28;20025;-65
2022/11/15 00:52:25;;;;;;;24.48;12.00;;;;;;;8.03;100.00;100733.94;5049210;28;20033;-65
2022/11/15 00:54:50;;;;;;;24.65;11.60;;;;;;;8.05;100.00;100735.41;5049204;28;20377;-65
2022/11/15 00:57:16;;;;;;;27.08;13.20;;;;;;;8.08;100.00;100728.91;5049116;28;20504;-65
2022/11/15 00:59:41;;;;;;;24.30;11.68;;;;;;;8.15;100.00;100734.31;5049022;28;20391;-65
2022/11/15 01:02:06;;;;;;;23.92;13.32;;;;;;;8.18;100.00;100733.97;5048999;28;20051;-66
2022/11/15 01:04:32;;;;;;;24.20;13.13;;;;;;;8.21;100.00;100729.09;5048934;28;20531;-66
2022/11/15 01:06:57;;;;;;;27.20;14.10;;;;;;;8.25;100.00;100729.53;5049870;28;20107;-65
2022/11/15 01:09:23;;;;;;;23.67;12.63;;;;;;;8.29;100.00;100728.16;5052582;28;20044;-65
2022/11/15 01:11:48;;;;;;;26.08;13.48;;;;;;;8.31;100.00;100729.63;5051310;28;20060;-65
2022/11/15 01:14:13;;;;;;;26.27;13.50;;;;;;;8.31;100.00;100726.16;5052797;28;20035;-66
2022/11/15 01:16:39;;;;;;;22.45;11.93;;;;;;;8.30;100.00;100717.34;5052743;28;20432;-65
2022/11/15 01:19:04;;;;;;;22.92;12.02;;;;;;;8.39;100.00;100725.25;5052594;28;20037;-65
2022/11/15 01:21:30;;;;;;;22.98;12.85;;;;;;;8.39;100.00;100712.81;5051261;28;20040;-65
2022/11/15 01:23:56;;;;;;;21.65;10.43;;;;;;;8.41;100.00;100712.59;5052506;28;20503;-65
2022/11/15 01:26:23;;;;;;;25.42;13.35;;;;;;;8.41;100.00;100715.25;5051331;28;20096;-65
2022/11/15 01:28:48;;;;;;;24.35;12.77;;;;;;;8.43;100.00;100711.41;5052535;28;20104;-66
2022/11/15 01:31:19;;;;;;;26.88;12.68;;;;;;;8.47;100.00;100707.38;5052400;28;21037;-65
2022/11/15 01:33:45;;;;;;;25.45;13.88;;;;;;;8.46;100.00;100703.09;5052381;28;20936;-65
2022/11/15 01:36:14;;;;;;;23.17;12.13;;;;;;;8.46;100.00;100700.44;5052316;28;20039;-66
2022/11/15 01:38:39;;;;;;;22.33;11.45;;;;;;;8.50;100.00;100704.34;5052235;28;20037;-66
2022/11/15 01:41:05;;;;;;;21.00;12.05;;;;;;;8.51;100.00;100694.53;5052294;28;20365;-66
2022/11/15 01:43:36;;;;;;;23.15;11.55;;;;;;;8.51;100.00;100691.88;5052091;28;20033;-65
2022/11/15 01:46:18;;;;;;;24.45;12.63;;;;;;;8.53;100.00;100698.66;5052217;28;20044;-65
2022/11/15 01:48:44;;;;;;;24.27;12.52;;;;;;;8.55;100.00;100696.63;5051946;28;20124;-65
2022/11/15 01:51:13;;;;;;;23.88;12.65;;;;;;;8.55;100.00;100698.47;5052156;28;20124;-65
2022/11/15 01:53:42;;;;;;;22.08;11.65;;;;;;;8.54;100.00;100689.69;5052083;28;20074;-65
2022/11/15 01:56:13;;;;;;;21.13;10.95;;;;;;;8.55;100.00;100693.97;5051925;28;20024;-65
2022/11/15 01:58:40;;;;;;;21.75;12.45;;;;;;;8.60;100.00;100701.41;5051786;28;20468;-65
2022/11/15 02:01:06;;;;;;;23.75;11.55;;;;;;;8.61;100.00;100694.22;5051462;28;20037;-65
2022/11/15 02:03:41;;;;;;;24.25;11.68;;;;;;;8.65;100.00;100698.19;5051667;28;20086;-65
2022/11/15 02:06:07;;;;;;;25.42;13.05;;;;;;;8.65;100.00;100701.66;5051810;28;20021;-65
2022/11/15 02:08:33;;;;;;;23.02;13.10;;;;;;;8.68;100.00;100698.63;5051914;28;20392;-65
2022/11/15 02:10:58;;;;;;;24.05;12.98;;;;;;;8.71;100.00;100689.44;5051715;28;20036;-65
2022/11/15 02:13:23;;;;;;;21.08;11.68;;;;;;;8.73;100.00;100696.22;5051606;28;20033;-66
2022/11/15 02:16:15;;;;;;;22.85;12.48;;;;;;;8.76;100.00;100682.53;5051592;28;20033;-66
2022/11/15 02:18:47;;;;;;;24.75;13.00;;;;;;;8.77;100.00;100684.19;5049923;28;20068;-66
2022/11/15 02:21:31;;;;;;;21.55;12.50;;;;;;;8.84;100.00;100675.47;5051407;28;20056;-66
2022/11/15 02:24:18;;;;;;;20.60;12.63;;;;;;;8.80;100.00;100667.03;5049964;28;20021;-66
2022/11/15 02:26:56;;;;;;;23.15;11.82;;;;;;;8.86;100.00;100668.94;5051388;28;20052;-66
2022/11/15 02:29:24;;;;;;;21.38;11.60;;;;;;;8.88;100.00;100672.25;5051310;28;20111;-66
2022/11/15 02:32:03;;;;;;;23.60;12.02;;;;;;;8.91;100.00;100671.03;5051294;28;20017;-66
2022/11/15 02:34:43;;;;;;;23.27;12.13;;;;;;;8.91;100.00;100663.88;5051229;28;20025;-66
2022/11/15 02:37:35;;;;;;;22.52;11.40;;;;;;;8.95;100.00;100666.97;5051241;28;20021;-66
2022/11/15 02:40:17;;;;;;;22.70;12.05;;;;;;;8.96;100.00;100669.44;5051068;28;20503;-66
2022/11/15 02:45:45;;;;;;;23.17;11.90;;;;;;;9.05;100.00;100666.66;5051248;28;20048;-66
2022/11/15 02:48:12;;;;;;;26.80;12.73;;;;;;;9.07;100.00;100667.28;5050696;28;20064;-66
2022/11/15 02:50:37;;;;;;;24.75;12.70;;;;;;;9.11;100.00;100661.38;5049598;28;20070;-66
2022/11/15 02:53:03;;;;;;;22.63;12.80;;;;;;;9.12;100.00;100657.72;5050701;28;20041;-66
2022/11/15 02:55:30;;;;;;;24.02;13.15;;;;;;;9.15;100.00;100657.34;5050747;28;20025;-66
2022/11/15 02:58:04;;;;;;;27.08;11.75;;;;;;;9.18;100.00;100650.81;5050852;28;20032;-66
2022/11/15 03:00:35;;;;;;;22.48;11.60;;;;;;;9.19;100.00;100650.59;5050576;28;20028;-66
2022/11/15 03:03:18;;;;;;;23.60;12.82;;;;;;;9.19;100.00;100650.59;5050546;28;20029;-66
2022/11/15 03:05:55;;;;;;;23.85;11.98;;;;;;;9.24;100.00;100651.88;5050581;28;20025;-66
2022/11/15 03:08:54;;;;;;;23.40;12.60;;;;;;;9.27;100.00;100640.84;5050578;28;20044;-66
2022/11/15 03:11:22;;;;;;;24.40;14.10;;;;;;;9.30;100.00;100637.78;5049240;28;20514;-66
2022/11/15 03:13:58;;;;;;;24.35;11.98;;;;;;;9.33;100.00;100638.25;5050347;28;20104;-66
2022/11/15 03:16:29;;;;;;;26.23;13.23;;;;;;;9.34;100.00;100636.38;5050265;28;20029;-68
2022/11/15 03:19:04;;;;;;;25.55;12.98;;;;;;;9.36;100.00;100629.84;5050341;28;20021;-68
2022/11/15 03:21:32;;;;;;;23.90;12.75;;;;;;;9.37;100.00;100639.47;5050059;28;20029;-68
2022/11/15 03:24:03;;;;;;;24.23;13.15;;;;;;;9.39;100.00;100633.97;5050171;28;20031;-68
2022/11/15 03:26:30;;;;;;;22.88;12.32;;;;;;;9.43;100.00;100637.88;5050337;28;20046;-68
2022/11/15 03:29:00;;;;;;;22.45;12.43;;;;;;;9.42;100.00;100631.72;5050293;28;20522;-68
2022/11/15 03:31:48;;;;;;;22.30;12.27;;;;;;;9.42;100.00;100642.38;5050117;28;20516;-70
2022/11/15 03:34:48;;;;;;;24.35;12.07;;;;;;;9.46;100.00;100640.16;5050159;28;20361;-70
2022/11/15 03:37:15;;;;;;;20.77;11.13;;;;;;;9.46;100.00;100645.50;5049112;28;20041;-70
2022/11/15 03:39:42;;;;;;;21.25;11.95;;;;;;;9.50;100.00;100651.25;5050042;28;20115;-70
2022/11/15 03:42:22;;;;;;;23.55;12.75;;;;;;;9.50;100.00;100644.06;5049865;28;20091;-70
2022/11/15 03:45:06;;;;;;;24.60;13.48;;;;;;;9.53;100.00;100651.66;5050062;28;20043;-70
2022/11/15 03:47:40;;;;;;;30.13;14.75;;;;;;;9.55;100.00;100643.50;5049771;28;20090;-70
2022/11/15 03:50:19;;;;;;;20.15;11.30;;;;;;;9.60;100.00;100638.41;5049939;28;20056;-70
2022/11/15 03:52:49;;;;;;;24.05;13.73;;;;;;;9.64;100.00;100645.81;5049816;28;20029;-70
2022/11/15 03:55:19;;;;;;;37.75;14.48;;;;;;;9.68;100.00;100648.91;5049849;28;20072;-70
2022/11/15 03:57:48;;;;;;;22.27;11.80;;;;;;;9.70;100.00;100638.06;5049671;28;20032;-70
2022/11/15 04:00:14;;;;;;;23.08;12.50;;;;;;;9.70;100.00;100643.41;5049636;28;20029;-70
2022/11/15 04:02:39;;;;;;;26.63;12.60;;;;;;;9.74;100.00;100644.63;5049609;28;20122;-70
2022/11/15 04:05:04;;;;;;;25.33;13.23;;;;;;;9.76;100.00;100643.41;5049698;28;20039;-70
2022/11/15 04:07:30;;;;;;;24.55;13.13;;;;;;;9.76;100.00;100642.59;5049597;28;20041;-70
2022/11/15 04:10:05;;;;;;;28.98;12.82;;;;;;;9.82;100.00;100644.47;5049602;28;20379;-70
2022/11/15 04:12:36;;;;;;;24.42;12.68;;;;;;;9.81;100.00;100650.81;5049638;28;20448;-70
2022/11/15 04:15:09;;;;;;;30.43;13.33;;;;;;;9.86;100.00;100643.88;5049626;28;20025;-70
2022/11/15 04:17:36;;;;;;;24.00;14.05;;;;;;;9.75;100.00;100620.47;5049636;28;20025;-70
2022/11/15 04:25:42;;;;;;;27.77;12.90;;;;;;;9.82;100.00;100623.16;5049775;28;20036;-70
2022/11/15 04:28:07;;;;;;;24.80;13.93;;;;;;;9.90;100.00;100632.84;5049585;28;20029;-66
2022/11/15 04:30:33;;;;;;;23.25;13.40;;;;;;;9.91;100.00;100637.97;5049357;28;20043;-67
2022/11/15 04:32:58;;;;;;;34.10;14.75;;;;;;;9.92;100.00;100641.44;5049330;28;20744;-67
2022/11/15 04:35:23;;;;;;;25.08;13.52;;;;;;;9.92;100.00;100636.13;5049301;28;20415;-67
2022/11/15 04:37:49;;;;;;;27.30;14.27;;;;;;;9.95;100.00;100641.88;5049340;28;20461;-67
2022/11/15 04:40:14;;;;;;;23.98;13.00;;;;;;;9.97;100.00;100637.16;5049361;28;20024;-67
2022/11/15 04:42:42;;;;;;;26.98;14.30;;;;;;;10.00;100.00;100642.09;5051409;28;20491;-67
2022/11/15 04:45:08;;;;;;;27.77;15.73;;;;;;;10.00;100.00;100644.75;5053305;28;20102;-67
2022/11/15 04:47:33;;;;;;;23.58;13.35;;;;;;;9.98;100.00;100633.50;5052869;28;20040;-67
2022/11/15 04:49:58;;;;;;;26.77;13.60;;;;;;;10.00;100.00;100644.75;5053050;28;20195;-67
2022/11/15 04:52:24;;;;;;;28.55;15.02;;;;;;;10.01;100.00;100646.44;5053210;28;20120;-67
2022/11/15 04:54:49;;;;;;;25.98;13.50;;;;;;;9.96;100.00;100640.06;5053169;28;20065;-67
2022/11/15 04:57:15;;;;;;;29.25;15.15;;;;;;;10.02;100.00;100642.72;5053130;28;20029;-67
2022/11/15 04:59:40;;;;;;;31.67;14.88;;;;;;;10.05;100.00;100645.00;5053053;28;20033;-66
2022/11/15 05:02:05;;;;;;;25.67;15.70;;;;;;;10.06;100.00;100635.16;5052876;28;20658;-67
2022/11/15 05:04:31;;;;;;;27.60;14.60;;;;;;;10.08;100.00;100638.44;5052935;28;20978;-67
2022/11/15 05:06:56;;;;;;;26.58;12.70;;;;;;;10.06;100.00;100633.34;5052917;28;20033;-67
2022/11/15 05:09:21;;;;;;;23.52;14.13;;;;;;;10.07;100.00;100634.16;5052687;28;20040;-67
2022/11/15 05:11:47;;;;;;;28.92;15.93;;;;;;;10.07;100.00;100640.28;5052726;28;20029;-67
2022/11/15 05:14:13;;;;;;;24.52;13.98;;;;;;;10.04;100.00;100627.38;5052713;28;20082;-67
2022/11/15 05:16:39;;;;;;;25.08;12.43;;;;;;;10.07;100.00;100634.97;5052663;28;20103;-67
2022/11/15 05:19:05;;;;;;;27.58;12.88;;;;;;;10.05;100.00;100634.34;5052655;28;20025;-67
2022/11/15 05:21:31;;;;;;;23.30;13.68;;;;;;;10.04;100.00;100631.88;5052624;28;20044;-67
2022/11/15 05:23:57;;;;;;;24.90;13.68;;;;;;;10.01;100.00;100635.78;5052521;28;20028;-66
2022/11/15 05:26:22;;;;;;;28.95;13.10;;;;;;;10.02;100.00;100636.59;5052580;28;20056;-69
2022/11/15 05:28:55;;;;;;;29.00;14.57;;;;;;;10.01;100.00;100629.63;5052410;28;20094;-69
2022/11/15 05:31:21;;;;;;;28.95;14.43;;;;;;;10.01;100.00;100627.78;5052283;28;20036;-70
2022/11/15 05:33:49;;;;;;;26.00;13.85;;;;;;;9.97;100.00;100615.03;5052356;28;20048;-70
2022/11/15 05:36:37;;;;;;;30.42;15.55;;;;;;;10.04;100.00;100624.72;5052415;28;20396;-70
2022/11/15 05:39:05;;;;;;;25.25;13.07;;;;;;;10.04;100.00;100621.22;5052224;28;20060;-70
2022/11/15 05:41:35;;;;;;;25.52;14.93;;;;;;;10.02;100.00;100626.75;5052151;28;20086;-70
2022/11/15 05:44:05;;;;;;;25.75;13.38;;;;;;;9.99;100.00;100619.16;5052255;28;20056;-70
2022/11/15 05:46:33;;;;;;;27.33;14.80;;;;;;;9.98;100.00;100611.34;5052141;28;20039;-70
2022/11/15 05:48:59;;;;;;;24.50;12.75;;;;;;;10.03;100.00;100608.91;5051973;28;20503;-70
2022/11/15 05:51:28;;;;;;;24.27;14.55;;;;;;;10.02;100.00;100613.41;5052112;28;20025;-70
2022/11/15 05:53:56;;;;;;;27.30;14.85;;;;;;;10.02;100.00;100623.25;5050685;28;20039;-70
2022/11/15 05:56:22;;;;;;;24.75;14.32;;;;;;;10.06;100.00;100633.34;5051776;28;20380;-70
2022/11/15 05:58:47;;;;;;;23.00;12.00;;;;;;;10.01;100.00;100617.13;5051794;28;20025;-70
2022/11/15 06:01:13;;;;;;;23.20;13.05;;;;;;;10.06;100.00;100621.81;5051782;28;20090;-70
2022/11/15 06:03:39;;;;;;;21.65;14.07;;;;;;;10.07;100.00;100624.31;5051701;28;20044;-70
2022/11/15 06:06:04;;;;;;;30.75;14.55;;;;;;;10.08;100.00;100622.47;5051747;28;20040;-70
2022/11/15 06:08:29;;;;;;;31.55;13.43;;;;;;;10.08;100.00;100628.59;5050383;28;20047;-70
2022/11/15 06:10:55;;;;;;;31.95;16.00;;;;;;;10.10;100.00;100628.41;5051675;28;20116;-70
2022/11/15 06:13:20;;;;;;;26.15;15.13;;;;;;;10.00;100.00;100618.13;5051640;28;20052;-70
2022/11/15 06:15:45;;;;;;;24.48;12.57;;;;;;;10.09;100.00;100624.13;5051581;28;20067;-70
2022/11/15 06:18:11;;;;;;;32.08;14.18;;;;;;;10.06;100.00;100632.50;5051598;28;20021;-70
2022/11/15 06:20:36;;;;;;;24.17;13.60;;;;;;;10.05;100.00;100637.00;5051528;28;20447;-70
2022/11/15 06:23:04;;;;;;;24.92;12.75;;;;;;;10.03;100.00;100632.88;5051143;28;20036;-70
2022/11/15 06:25:30;;;;;;;22.83;13.80;;;;;;;10.06;100.00;100632.50;5051369;28;20029;-72
2022/11/15 06:27:58;;;;;;;28.73;15.35;;;;;;;10.06;100.00;100640.47;5050184;28;20116;-70
2022/11/15 06:30:25;;;;;;;42.83;15.43;;;;;;;10.05;100.00;100634.34;5051152;28;20033;-70
2022/11/15 06:32:50;;;;;;;20.52;11.65;;;;;;;10.04;100.00;100646.03;5051167;28;20021;-70
2022/11/15 06:35:16;;;;;;;22.02;13.25;;;;;;;10.06;100.00;100653.81;5051191;28;20041;-71
2022/11/15 06:37:41;;;;;;;22.83;11.13;;;;;;;10.07;100.00;100650.13;5051172;28;20036;-70
2022/11/15 06:40:09;;;;;;;22.00;12.00;;;;;;;10.06;100.00;100657.31;5051105;28;20477;-70
2022/11/15 06:42:35;;;;;;;21.27;11.75;;;;;;;10.07;100.00;100655.47;5050928;28;20032;-69
2022/11/15 06:45:00;;;;;;;21.23;10.73;;;;;;;10.01;100.00;100646.44;5051005;28;20039;-68
2022/11/15 06:47:26;;;;;;;22.48;11.27;;;;;;;10.05;100.00;100660.97;5051043;28;20041;-69
2022/11/15 06:49:51;;;;;;;20.13;10.70;;;;;;;10.03;100.00;100662.19;5050805;28;20843;-69
2022/11/15 06:52:18;;;;;;;23.77;10.27;;;;;;;10.01;100.00;100665.06;5050856;28;20051;-70
2022/11/15 06:54:44;;;;;;;24.55;12.63;;;;;;;10.03;100.00;100671.03;5050816;28;20029;-70
2022/11/15 06:57:10;;;;;;;24.83;11.27;;;;;;;10.04;100.00;100667.34;5050833;28;20048;-70
2022/11/15 06:59:35;;;;;;;20.77;10.80;;;;;;;10.04;100.00;100669.19;5050693;28;20033;-69
2022/11/15 07:02:01;;;;;;;22.90;11.02;;;;;;;10.04;100.00;100683.31;5050560;28;20025;-69
2022/11/15 07:04:26;;;;;;;28.40;13.90;;;;;;;9.97;100.00;100665.66;5050276;28;20033;-70
2022/11/15 07:06:51;;;;;;;22.58;12.15;;;;;;;9.99;100.00;100667.09;5049274;28;20029;-69
2022/11/15 07:09:17;;;;;;;21.20;11.52;;;;;;;10.01;100.00;100669.59;5049284;28;20033;-70
2022/11/15 07:11:42;;;;;;;22.95;11.70;;;;;;;10.01;100.00;100681.06;5050400;28;20699;-70
2022/11/15 07:14:07;;;;;;;23.73;11.82;;;;;;;9.99;100.00;100661.78;5050432;28;20025;-69
2022/11/15 07:16:33;;;;;;;21.20;11.15;;;;;;;9.99;100.00;100675.09;5050282;28;20033;-69
2022/11/15 07:18:58;;;;;;;24.98;11.90;;;;;;;10.00;100.00;100668.75;5049101;28;20072;-69
2022/11/15 07:21:24;;;;;;;33.88;12.60;;;;;;;9.98;100.00;100673.47;5050240;28;20036;-69
2022/11/15 07:23:49;;;;;;;23.98;11.65;;;;;;;10.00;100.00;100678.59;5048781;28;20033;-69
2022/11/15 07:26:14;;;;;;;22.25;10.93;;;;;;;9.98;100.00;100691.28;5050231;28;20484;-69
2022/11/15 07:28:40;;;;;;;23.52;10.20;;;;;;;9.99;100.00;100684.94;5049987;28;20385;-70
2022/11/15 07:31:07;;;;;;;25.05;11.60;;;;;;;9.97;100.00;100685.13;5049020;28;20388;-70
2022/11/15 07:33:33;;;;;;;23.98;13.10;;;;;;;9.99;100.00;100693.75;5050029;28;20025;-70
2022/11/15 07:36:03;;;;;;;22.58;12.18;;;;;;;9.97;100.00;100690.47;5049969;28;20082;-70
2022/11/15 07:38:29;;;;;;;23.80;11.05;;;;;;;9.97;100.00;100687.78;5049441;28;20180;-70
2022/11/15 07:40:59;;;;;;;28.33;12.70;;;;;;;10.00;100.00;100689.25;5048618;28;20124;-69
2022/11/15 07:43:29;;;;;;;23.65;12.32;;;;;;;9.97;100.00;100682.47;5049944;28;20069;-69
2022/11/15 07:45:55;;;;;;;25.80;13.35;;;;;;;10.00;100.00;100683.91;5049792;28;20025;-69
2022/11/15 07:48:20;;;;;;;24.77;12.57;;;;;;;9.99;100.00;100677.75;5047860;28;20049;-69
2022/11/15 07:50:46;;;;;;;24.05;12.00;;;;;;;10.06;100.00;100683.97;5049809;28;20044;-69
2022/11/15 07:53:11;;;;;;;25.77;12.80;;;;;;;10.06;100.00;100669.78;5049385;28;20377;-70
2022/11/15 07:55:39;;;;;;;24.23;11.20;;;;;;;10.08;100.00;100670.41;5049888;28;20059;-69
2022/11/15 07:58:09;;;;;;;24.83;11.55;;;;;;;10.09;100.00;100675.56;5049376;28;20082;-69
2022/11/15 08:00:35;;;;;;;26.58;11.52;;;;;;;10.08;100.00;100676.56;5049352;28;20527;-69
2022/11/15 08:03:12;;;;;;;22.27;11.60;;;;;;;10.10;100.00;100671.88;5049298;28;20397;-69
2022/11/15 08:05:40;;;;;;;24.15;10.52;;;;;;;10.10;100.00;100666.53;5049350;28;20025;-69
2022/11/15 08:08:06;;;;;;;21.77;10.40;;;;;;;10.10;100.00;100660.41;5049158;28;20437;-69
2022/11/15 08:10:32;;;;;;;20.13;9.98;;;;;;;10.12;100.00;100674.34;5049313;28;20033;-67
2022/11/15 08:13:09;;;;;;;20.05;10.75;;;;;;;10.15;100.00;100676.63;5047928;28;20053;-67
2022/11/15 08:15:36;;;;;;;24.13;12.18;;;;;;;10.17;100.00;100682.56;5042206;28;20554;-67
2022/11/15 08:18:08;;;;;;;23.88;10.38;;;;;;;10.18;100.00;100691.38;5042215;28;20411;-67
2022/11/15 08:20:34;;;;;;;19.25;9.35;;;;;;;10.20;100.00;100692.03;5043073;28;20039;-66
2022/11/15 08:23:01;;;;;;;17.35;8.82;;;;;;;10.20;100.00;100692.03;5043068;28;20100;-67
2022/11/15 08:25:28;;;;;;;17.65;7.65;;;;;;;10.17;100.00;100695.09;5042872;28;20046;-67
2022/11/15 08:27:56;;;;;;;19.30;8.18;;;;;;;10.17;100.00;100689.75;5042658;28;20035;-67
2022/11/15 08:30:21;;;;;;;17.27;7.78;;;;;;;10.17;100.00;100687.09;5043196;28;20029;-67
2022/11/15 08:32:48;;;;;;;19.20;7.95;;;;;;;10.15;100.00;100681.94;5043368;28;20511;-68
2022/11/15 08:35:13;;;;;;;17.27;6.88;;;;;;;10.17;100.00;100685.25;5042620;28;20025;-68
2022/11/15 08:37:39;;;;;;;16.27;8.60;;;;;;;10.20;100.00;100690.16;5043215;28;20033;-68
2022/11/15 08:40:05;;;;;;;17.45;7.65;;;;;;;10.20;100.00;100684.03;5042785;28;20033;-68
2022/11/15 08:42:31;;;;;;;19.48;8.65;;;;;;;10.18;100.00;100684.22;5042899;28;20028;-68
2022/11/15 08:44:56;;;;;;;17.27;7.05;;;;;;;10.21;100.00;100683.00;5042307;28;20035;-67
2022/11/15 08:47:21;;;;;;;17.25;7.82;;;;;;;10.25;100.00;100686.91;5043073;28;20514;-67
2022/11/15 08:49:47;;;;;;;17.55;7.82;;;;;;;10.28;100.00;100683.88;5041778;28;20511;-67
2022/11/15 08:52:14;;;;;;;14.40;6.68;;;;;;;10.26;100.00;100673.38;5042613;28;20036;-67
2022/11/15 08:54:39;;;;;;;15.82;7.47;;;;;;;10.25;100.00;100668.25;5042571;28;20108;-68
2022/11/15 08:57:05;;;;;;;18.92;8.32;;;;;;;10.27;100.00;100664.41;5042926;28;20157;-67
2022/11/15 08:59:30;;;;;;;14.85;7.47;;;;;;;10.33;100.00;100656.63;5040699;28;20468;-67
2022/11/15 09:01:55;;;;;;;17.17;8.10;;;;;;;10.38;100.00;100663.00;5042833;28;20098;-67
2022/11/15 09:04:21;;;;;;;14.50;7.28;;;;;;;10.44;100.00;100661.38;5042004;28;20139;-67
2022/11/15 09:06:46;;;;;;;14.07;7.10;;;;;;;10.44;100.00;100656.88;5043016;28;20120;-67
2022/11/15 09:09:11;;;;;;;14.60;6.55;;;;;;;10.45;100.00;100655.00;5042846;28;20120;-67
2022/11/15 09:11:37;;;;;;;15.32;7.05;;;;;;;10.47;100.00;100663.63;5042463;28;20036;-70
2022/11/15 09:14:02;;;;;;;13.35;6.28;;;;;;;10.49;100.00;100654.41;5042270;28;20033;-67
2022/11/15 09:16:29;;;;;;;11.70;6.45;;;;;;;10.53;100.00;100660.16;5042382;28;20557;-67
2022/11/15 09:18:55;;;;;;;13.18;6.80;;;;;;;10.57;100.00;100656.09;5042741;28;20037;-67
2022/11/15 09:21:20;;;;;;;13.00;5.75;;;;;;;10.62;100.00;100650.16;5042824;28;20032;-67
2022/11/15 09:23:46;;;;;;;13.13;6.57;;;;;;;10.63;100.00;100633.13;5042361;28;20047;-68
2022/11/15 09:26:11;;;;;;;12.68;5.55;;;;;;;10.62;100.00;100634.16;5042518;28;20036;-67
2022/11/15 09:28:37;;;;;;;8.98;5.40;;;;;;;10.57;100.00;100633.94;5044088;28;20061;-68
2022/11/15 09:31:05;;;;;;;11.43;5.15;;;;;;;10.62;100.00;100634.16;5046321;28;20469;-68
2022/11/15 09:33:30;;;;;;;10.07;4.97;;;;;;;10.62;100.00;100632.28;5046008;28;20109;-68
2022/11/15 09:36:01;;;;;;;9.80;5.15;;;;;;;10.62;100.00;100620.81;5046065;28;20104;-68
2022/11/15 09:38:27;;;;;;;8.02;4.28;;;;;;;10.58;100.00;100620.38;5046229;28;20039;-68
2022/11/15 09:41:08;;;;;;;7.30;4.32;;;;;;;10.61;100.00;100620.00;5046140;28;20021;-67
2022/11/15 09:44:07;;;;;;;12.48;5.47;;;;;;;10.63;100.00;100620.59;5045626;28;20070;-68
2022/11/15 09:47:03;;;;;;;8.05;4.30;;;;;;;10.68;100.00;100634.16;5046029;28;20380;-69
2022/11/15 09:49:29;;;;;;;10.10;4.57;;;;;;;10.75;100.00;100629.66;5045662;28;20072;-67
2022/11/15 09:51:55;;;;;;;5.15;3.92;;;;;;;10.76;100.00;100622.47;5045851;28;20018;-68
2022/11/15 09:54:23;;;;;;;8.55;4.45;;;;;;;10.81;100.00;100635.19;5044869;28;20048;-67
2022/11/15 09:56:50;;;;;;;10.80;5.10;;;;;;;10.85;100.00;100621.25;5044241;28;20033;-68
2022/11/15 09:59:31;;;;;;;7.97;4.13;;;;;;;10.92;100.00;100613.25;5045782;28;20120;-68
2022/11/15 10:02:07;;;;;;;6.55;3.88;;;;;;;10.99;100.00;100618.59;5045785;28;20025;-67
2022/11/15 10:04:33;;;;;;;8.48;3.55;;;;;;;11.05;100.00;100610.56;5045075;28;20033;-67
2022/11/15 10:07:13;;;;;;;7.90;3.80;;;;;;;11.12;100.00;100611.41;5045140;28;20506;-67
2022/11/15 10:09:49;;;;;;;7.10;4.72;;;;;;;11.18;100.00;100618.56;5045175;28;20036;-68
2022/11/15 10:12:16;;;;;;;9.95;4.00;;;;;;;11.19;100.00;100595.41;5045449;28;20021;-67
2022/11/15 10:14:42;;;;;;;6.22;4.00;;;;;;;11.27;100.00;100599.69;5044850;28;20139;-67
2022/11/15 10:17:22;;;;;;;7.50;3.60;;;;;;;11.31;100.00;100601.72;5045301;28;20104;-68
2022/11/15 10:20:20;;;;;;;6.20;3.35;;;;;;;11.37;100.00;100602.75;5044570;28;20108;-68
2022/11/15 10:22:49;;;;;;;4.90;2.90;;;;;;;11.37;100.00;100598.25;5044896;28;20051;-68
2022/11/15 10:25:19;;;;;;;8.70;3.30;;;;;;;11.37;100.00;100592.91;5044765;28;20021;-69
2022/11/15 10:27:52;;;;;;;5.95;2.97;;;;;;;11.45;100.00;100599.03;5045588;28;20432;-67
2022/11/15 10:30:18;;;;;;;10.90;4.03;;;;;;;11.48;100.00;100591.44;5044810;28;20025;-68
2022/11/15 10:32:45;;;;;;;7.03;3.72;;;;;;;11.50;100.00;100584.03;5044785;28;20817;-67
2022/11/15 10:35:29;;;;;;;5.78;2.38;;;;;;;11.56;100.00;100588.53;5043201;28;20121;-68
2022/11/15 10:38:09;;;;;;;8.40;2.92;;;;;;;11.49;100.00;100592.25;5044732;28;20134;-68
2022/11/15 10:40:35;;;;;;;5.93;2.70;;;;;;;11.45;100.00;100588.34;5044760;28;20089;-67
2022/11/15 10:43:19;;;;;;;2.88;2.22;;;;;;;11.41;100.00;100580.75;5044468;28;20060;-68
2022/11/15 10:45:46;;;;;;;5.68;2.17;;;;;;;11.34;100.00;100579.13;5044099;28;20083;-67
2022/11/15 10:48:11;;;;;;;3.85;2.25;;;;;;;11.27;100.00;100567.66;5044526;28;20499;-69
2022/11/15 10:50:38;;;;;;;6.85;3.15;;;;;;;11.18;100.00;100567.84;5043663;28;20036;-69
2022/11/15 10:53:12;;;;;;;4.65;2.15;;;;;;;11.14;100.00;100563.97;5044303;28;20031;-68
2022/11/15 10:55:40;;;;;;;3.75;2.10;;;;;;;11.17;97.94;100565.41;5043052;28;20049;-67
2022/11/15 10:58:29;;;;;;;4.07;2.08;;;;;;;11.22;98.54;100570.94;5044127;28;20063;-68
2022/11/15 11:00:54;;;;;;;6.00;2.40;;;;;;;11.23;97.15;100563.75;5044390;28;20028;-67
2022/11/15 11:03:33;;;;;;;3.28;1.90;;;;;;;11.23;97.85;100553.06;5043895;28;20032;-67
2022/11/15 11:06:06;;;;;;;8.95;3.92;;;;;;;11.25;98.79;100551.84;5044377;28;20032;-66
2022/11/15 11:08:32;;;;;;;4.30;2.30;;;;;;;11.36;96.83;100553.84;5043743;28;20025;-67
2022/11/15 11:10:59;;;;;;;3.33;1.92;;;;;;;11.41;96.94;100546.03;5047858;28;20124;-67
2022/11/15 11:13:30;;;;;;;12.10;4.18;;;;;;;11.50;97.17;100549.31;5050129;28;20021;-67
2022/11/15 11:16:13;;;;;;;4.15;2.33;;;;;;;11.55;96.99;100536.16;5050290;28;20408;-67
2022/11/15 11:19:00;;;;;;;5.10;2.72;;;;;;;11.56;93.56;100545.00;5050424;28;20029;-67
2022/11/15 11:21:53;;;;;;;6.97;2.25;;;;;;;11.62;94.72;100536.13;5050492;28;20468;-67
2022/11/15 11:24:34;;;;;;;2.70;2.35;;;;;;;11.66;94.66;100532.00;5049809;28;20035;-67
2022/11/15 11:27:02;;;;;;;6.97;2.28;;;;;;;11.76;91.87;100535.06;5050095;28;20108;-67